createdAt,value
2018-10-06T00:01:00.958Z,11.60
2018-10-06T00:03:28.544Z,11.50
2018-10-06T00:05:55.875Z,11.40
2018-10-06T00:08:23.254Z,11.60
2018-10-06T00:10:50.717Z,11.30
2018-10-06T00:13:18.214Z,11.30
2018-10-06T00:15:45.574Z,11.30
2018-10-06T00:18:13.807Z,11.30
2018-10-06T00:20:41.500Z,11.30
2018-10-06T00:23:08.922Z,11.20
2018-10-06T00:25:36.391Z,11.20
2018-10-06T00:28:03.835Z,11.10
2018-10-06T00:30:31.312Z,11.10
2018-10-06T00:32:58.763Z,11.10
2018-10-06T00:35:26.134Z,10.90
2018-10-06T00:37:53.422Z,10.90
2018-10-06T00:40:20.820Z,11.00
2018-10-06T00:42:48.262Z,11.00
2018-10-06T00:45:15.786Z,10.90
2018-10-06T00:47:43.198Z,10.80
2018-10-06T00:50:10.637Z,10.80
2018-10-06T00:52:38.042Z,10.70
2018-10-06T00:55:05.522Z,10.70
2018-10-06T00:57:32.830Z,10.70
2018-10-06T01:00:00.292Z,10.60
2018-10-06T01:02:27.642Z,10.50
2018-10-06T01:04:55.009Z,10.70
2018-10-06T01:07:22.480Z,10.70
2018-10-06T01:09:49.945Z,10.70
2018-10-06T01:12:17.369Z,10.50
2018-10-06T01:14:44.826Z,10.60
2018-10-06T01:17:12.137Z,10.60
2018-10-06T01:19:39.760Z,10.40
2018-10-06T01:22:07.237Z,10.40
2018-10-06T01:24:34.853Z,10.40
2018-10-06T01:27:02.322Z,10.50
2018-10-06T01:29:31.332Z,10.50
2018-10-06T01:31:59.778Z,10.50
2018-10-06T01:34:27.193Z,10.40
2018-10-06T01:36:54.547Z,10.30
2018-10-06T01:39:21.960Z,10.20
2018-10-06T01:41:49.336Z,10.30
2018-10-06T01:44:16.801Z,10.20
2018-10-06T01:46:44.231Z,10.10
2018-10-06T01:49:11.668Z,10.10
2018-10-06T01:51:39.065Z,9.90
2018-10-06T01:54:06.429Z,9.90
2018-10-06T01:56:33.844Z,9.80
2018-10-06T01:59:01.624Z,9.80
2018-10-06T02:01:30.073Z,9.70
2018-10-06T02:03:58.533Z,9.70
2018-10-06T02:06:26.778Z,9.80
2018-10-06T02:08:54.133Z,9.90
2018-10-06T02:11:21.538Z,9.90
2018-10-06T02:13:48.853Z,10.00
2018-10-06T02:16:16.259Z,9.90
2018-10-06T02:18:44.584Z,9.80
2018-10-06T02:21:12.362Z,9.70
2018-10-06T02:23:39.832Z,9.60
2018-10-06T02:26:07.326Z,9.60
2018-10-06T02:28:34.790Z,9.60
2018-10-06T02:31:02.258Z,9.60
2018-10-06T02:33:29.885Z,9.80
2018-10-06T02:35:57.283Z,9.80
2018-10-06T02:38:24.624Z,9.80
2018-10-06T02:40:52.006Z,9.70
2018-10-06T02:43:19.347Z,9.60
2018-10-06T02:45:47.035Z,9.50
2018-10-06T02:48:14.482Z,9.60
2018-10-06T02:50:41.934Z,9.70
2018-10-06T02:53:09.860Z,9.80
2018-10-06T02:55:37.310Z,9.90
2018-10-06T02:58:04.712Z,10.00
2018-10-06T03:00:32.210Z,10.10
2018-10-06T03:02:59.580Z,10.20
2018-10-06T03:05:26.990Z,10.10
2018-10-06T03:07:54.338Z,10.10
2018-10-06T03:10:21.898Z,10.00
2018-10-06T03:12:49.348Z,10.10
2018-10-06T03:15:16.770Z,10.20
2018-10-06T03:17:44.194Z,10.20
2018-10-06T03:20:11.558Z,10.10
2018-10-06T03:22:38.957Z,10.10
2018-10-06T03:25:06.338Z,10.00
2018-10-06T03:27:33.726Z,10.00
2018-10-06T03:30:01.213Z,10.10
2018-10-06T03:32:28.674Z,10.00
2018-10-06T03:34:56.138Z,10.00
2018-10-06T03:37:23.634Z,10.10
2018-10-06T03:39:51.016Z,10.10
2018-10-06T03:42:18.363Z,10.00
2018-10-06T03:44:45.763Z,10.00
2018-10-06T03:47:13.129Z,9.80
2018-10-06T03:49:40.511Z,9.90
2018-10-06T03:52:07.967Z,10.00
2018-10-06T03:54:35.373Z,10.10
2018-10-06T03:57:02.908Z,10.00
2018-10-06T03:59:31.112Z,10.10
2018-10-06T04:01:58.800Z,10.00
2018-10-06T04:04:27.151Z,10.00
2018-10-06T04:06:55.440Z,10.10
2018-10-06T04:09:22.833Z,10.10
2018-10-06T04:11:50.253Z,10.00
2018-10-06T04:14:17.863Z,10.00
2018-10-06T04:16:45.325Z,10.00
2018-10-06T04:19:12.725Z,10.10
2018-10-06T04:21:44.204Z,10.10
2018-10-06T04:24:11.725Z,10.10
2018-10-06T04:26:39.295Z,10.10
2018-10-06T04:29:06.782Z,10.20
2018-10-06T04:31:34.186Z,10.20
2018-10-06T04:34:01.629Z,10.20
2018-10-06T04:36:29.029Z,10.20
2018-10-06T04:38:56.608Z,10.20
2018-10-06T04:41:24.139Z,10.20
2018-10-06T04:43:51.510Z,10.10
2018-10-06T04:46:18.940Z,10.10
2018-10-06T04:48:46.325Z,10.20
2018-10-06T04:51:13.753Z,10.10
2018-10-06T04:53:41.155Z,10.20
2018-10-06T04:56:08.529Z,10.20
2018-10-06T04:58:35.929Z,10.10
2018-10-06T05:01:03.427Z,10.00
2018-10-06T05:03:30.871Z,9.90
2018-10-06T05:05:58.272Z,9.60
2018-10-06T05:08:26.802Z,9.30
2018-10-06T05:10:54.623Z,9.20
2018-10-06T05:13:23.073Z,9.10
2018-10-06T05:15:51.392Z,9.10
2018-10-06T05:18:18.918Z,8.90
2018-10-06T05:20:46.294Z,8.90
2018-10-06T05:23:13.737Z,8.90
2018-10-06T05:25:41.142Z,8.90
2018-10-06T05:28:08.593Z,8.90
2018-10-06T05:30:36.924Z,8.90
2018-10-06T05:33:04.649Z,8.90
2018-10-06T05:35:32.480Z,8.90
2018-10-06T05:38:00.003Z,8.90
2018-10-06T05:40:27.399Z,8.90
2018-10-06T05:42:54.770Z,8.90
2018-10-06T05:45:22.195Z,9.00
2018-10-06T05:47:49.692Z,8.90
2018-10-06T05:50:17.409Z,9.00
2018-10-06T05:52:44.810Z,9.00
2018-10-06T05:55:12.167Z,9.00
2018-10-06T05:57:39.657Z,9.00
2018-10-06T06:00:07.366Z,9.00
2018-10-06T06:02:34.702Z,9.00
2018-10-06T06:05:02.063Z,9.10
2018-10-06T06:07:29.534Z,9.20
2018-10-06T06:09:57.097Z,9.20
2018-10-06T06:12:24.492Z,9.10
2018-10-06T06:14:51.973Z,9.20
2018-10-06T06:17:19.397Z,9.20
2018-10-06T06:19:46.811Z,9.50
2018-10-06T06:22:14.283Z,9.50
2018-10-06T06:24:41.745Z,9.50
2018-10-06T06:27:09.259Z,9.50
2018-10-06T06:29:36.654Z,9.60
2018-10-06T06:32:04.351Z,9.70
2018-10-06T06:34:31.535Z,9.90
2018-10-06T06:36:58.959Z,10.00
2018-10-06T06:39:26.413Z,10.10
2018-10-06T06:41:53.898Z,10.20
2018-10-06T06:44:21.454Z,10.30
2018-10-06T06:46:48.826Z,10.50
2018-10-06T06:49:16.277Z,10.70
2018-10-06T06:51:43.673Z,10.90
2018-10-06T06:54:11.243Z,11.00
2018-10-06T06:56:38.901Z,11.20
2018-10-06T06:59:06.323Z,11.40
2018-10-06T07:01:33.888Z,11.50
2018-10-06T07:04:01.267Z,11.60
2018-10-06T07:06:28.673Z,11.80
2018-10-06T07:08:56.140Z,12.00
2018-10-06T07:11:23.487Z,12.10
2018-10-06T07:13:50.929Z,12.30
2018-10-06T07:16:18.332Z,12.50
2018-10-06T07:18:45.755Z,12.70
2018-10-06T07:21:13.133Z,12.90
2018-10-06T07:23:40.554Z,13.10
2018-10-06T07:26:08.053Z,13.20
2018-10-06T07:28:35.463Z,13.30
2018-10-06T07:31:02.791Z,13.40
2018-10-06T07:33:30.323Z,13.50
2018-10-06T07:35:57.687Z,13.70
2018-10-06T07:38:25.240Z,13.90
2018-10-06T07:40:53.566Z,13.80
2018-10-06T07:43:20.946Z,13.80
2018-10-06T07:45:48.327Z,14.00
2018-10-06T07:48:15.813Z,14.30
2018-10-06T07:50:43.969Z,14.40
2018-10-06T07:53:11.493Z,14.60
2018-10-06T07:55:38.858Z,14.90
2018-10-06T07:58:06.381Z,14.90
2018-10-06T08:00:33.837Z,15.00
2018-10-06T08:03:01.292Z,15.20
2018-10-06T08:05:28.750Z,15.40
2018-10-06T08:07:56.069Z,15.30
2018-10-06T08:10:23.538Z,15.30
2018-10-06T08:12:50.890Z,15.40
2018-10-06T08:15:18.327Z,15.20
2018-10-06T08:17:45.882Z,15.20
2018-10-06T08:20:13.347Z,15.10
2018-10-06T08:22:40.771Z,15.20
2018-10-06T08:25:08.226Z,15.20
2018-10-06T08:27:35.790Z,15.20
2018-10-06T08:30:03.282Z,15.30
2018-10-06T08:32:30.759Z,15.50
2018-10-06T08:34:58.154Z,15.60
2018-10-06T08:37:25.556Z,15.70
2018-10-06T08:39:52.993Z,15.80
2018-10-06T08:42:20.427Z,15.80
2018-10-06T08:44:47.831Z,15.90
2018-10-06T08:47:15.912Z,15.80
2018-10-06T08:49:43.801Z,15.90
2018-10-06T08:52:12.208Z,16.00
2018-10-06T08:54:39.955Z,16.10
2018-10-06T08:57:07.714Z,16.20
2018-10-06T08:59:35.107Z,16.00
2018-10-06T09:02:02.570Z,16.10
2018-10-06T09:04:29.986Z,16.40
2018-10-06T09:06:57.434Z,16.50
2018-10-06T09:09:24.808Z,16.60
2018-10-06T09:11:52.276Z,16.80
2018-10-06T09:14:19.681Z,16.80
2018-10-06T09:16:47.154Z,16.90
2018-10-06T09:19:14.643Z,17.10
2018-10-06T09:21:44.012Z,17.20
2018-10-06T09:24:11.392Z,17.40
2018-10-06T09:26:38.776Z,17.80
2018-10-06T09:29:06.227Z,18.20
2018-10-06T09:31:33.648Z,18.50
2018-10-06T09:34:01.112Z,18.80
2018-10-06T09:36:28.499Z,19.20
2018-10-06T09:38:56.157Z,19.50
2018-10-06T09:41:23.568Z,19.50
2018-10-06T09:43:51.093Z,19.30
2018-10-06T09:46:18.566Z,19.30
2018-10-06T09:48:46.004Z,19.20
2018-10-06T09:51:13.464Z,19.10
2018-10-06T09:53:40.923Z,19.10
2018-10-06T09:56:08.337Z,19.20
2018-10-06T09:58:35.667Z,19.30
2018-10-06T10:01:08.787Z,19.40
2018-10-06T10:03:41.732Z,19.40
2018-10-06T10:06:09.146Z,19.50
2018-10-06T10:08:36.526Z,19.90
2018-10-06T10:11:04.039Z,20.20
2018-10-06T10:13:31.560Z,20.60
2018-10-06T10:15:59.019Z,20.90
2018-10-06T10:18:26.569Z,21.10
2018-10-06T10:23:28.275Z,21.40
2018-10-06T10:25:55.635Z,21.60
2018-10-06T10:28:23.108Z,21.90
2018-10-06T10:30:50.543Z,22.00
2018-10-06T10:33:17.963Z,22.10
2018-10-06T10:35:45.447Z,22.20
2018-10-06T10:38:12.916Z,22.10
2018-10-06T10:40:40.277Z,22.30
2018-10-06T10:43:07.901Z,22.20
2018-10-06T10:45:35.363Z,22.30
2018-10-06T10:48:02.854Z,22.40
2018-10-06T10:50:30.304Z,22.50
2018-10-06T10:52:57.706Z,23.00
2018-10-06T10:55:25.118Z,22.90
2018-10-06T10:57:52.596Z,22.80
2018-10-06T11:00:19.978Z,23.00
2018-10-06T11:02:47.755Z,22.90
2018-10-06T11:05:15.487Z,23.00
2018-10-06T11:07:43.321Z,23.10
2018-10-06T11:10:10.761Z,23.10
2018-10-06T11:12:39.920Z,23.10
2018-10-06T11:15:07.432Z,22.90
2018-10-06T11:17:36.908Z,23.10
2018-10-06T11:20:04.433Z,23.00
2018-10-06T11:22:32.463Z,23.10
2018-10-06T11:24:59.966Z,23.30
2018-10-06T11:27:28.103Z,23.60
2018-10-06T11:29:55.621Z,23.60
2018-10-06T11:32:23.534Z,23.60
2018-10-06T11:34:51.149Z,24.00
2018-10-06T11:37:18.578Z,23.90
2018-10-06T11:39:45.974Z,23.90
2018-10-06T11:42:13.320Z,24.00
2018-10-06T11:44:40.628Z,24.00
2018-10-06T11:47:08.274Z,24.00
2018-10-06T11:49:35.685Z,23.80
2018-10-06T11:52:03.127Z,24.00
2018-10-06T11:54:30.514Z,24.20
2018-10-06T11:56:57.900Z,24.50
2018-10-06T11:59:25.463Z,24.70
2018-10-06T12:01:52.962Z,24.70
2018-10-06T12:04:20.484Z,24.70
2018-10-06T12:06:48.000Z,24.70
2018-10-06T12:09:15.506Z,25.10
2018-10-06T12:11:43.545Z,24.90
2018-10-06T12:14:10.940Z,25.20
2018-10-06T12:16:38.463Z,25.20
2018-10-06T12:19:05.880Z,25.30
2018-10-06T12:21:33.514Z,25.30
2018-10-06T12:24:00.971Z,25.20
2018-10-06T12:26:28.560Z,24.90
2018-10-06T12:28:55.964Z,24.80
2018-10-06T12:31:23.442Z,24.70
2018-10-06T12:33:50.815Z,24.80
2018-10-06T12:36:18.387Z,25.00
2018-10-06T12:38:45.786Z,24.80
2018-10-06T12:41:13.252Z,24.80
2018-10-06T12:43:40.652Z,24.40
2018-10-06T12:46:08.148Z,24.70
2018-10-06T12:48:35.777Z,24.90
2018-10-06T12:51:03.183Z,25.00
2018-10-06T12:53:32.402Z,25.00
2018-10-06T12:55:59.893Z,24.70
2018-10-06T12:58:27.420Z,24.50
2018-10-06T13:00:54.730Z,24.20
2018-10-06T13:03:22.159Z,24.20
2018-10-06T13:05:49.668Z,24.30
2018-10-06T13:08:17.296Z,24.20
2018-10-06T13:10:44.756Z,24.20
2018-10-06T13:13:12.232Z,24.80
2018-10-06T13:15:39.705Z,25.00
2018-10-06T13:18:07.155Z,25.10
2018-10-06T13:20:34.701Z,25.10
2018-10-06T13:23:03.318Z,25.20
2018-10-06T13:25:32.532Z,25.00
2018-10-06T13:27:59.911Z,25.20
2018-10-06T13:30:27.318Z,25.60
2018-10-06T13:32:54.765Z,25.80
2018-10-06T13:35:22.218Z,26.00
2018-10-06T13:37:49.843Z,26.00
2018-10-06T13:40:17.313Z,26.00
2018-10-06T13:42:44.837Z,25.90
2018-10-06T13:45:12.346Z,26.00
2018-10-06T13:47:39.854Z,25.60
2018-10-06T13:50:07.433Z,25.50
2018-10-06T13:52:35.010Z,25.70
2018-10-06T13:55:02.536Z,25.10
2018-10-06T13:57:30.099Z,24.80
2018-10-06T13:59:57.585Z,24.60
2018-10-06T14:02:25.079Z,24.40
2018-10-06T14:04:52.489Z,24.20
2018-10-06T14:07:20.020Z,24.10
2018-10-06T14:09:47.515Z,23.90
2018-10-06T14:12:14.999Z,23.70
2018-10-06T14:14:42.450Z,23.50
2018-10-06T14:17:09.840Z,23.40
2018-10-06T14:19:37.180Z,23.30
2018-10-06T14:22:04.563Z,23.20
2018-10-06T14:24:31.999Z,23.20
2018-10-06T14:26:59.426Z,23.20
2018-10-06T14:29:26.886Z,23.20
2018-10-06T14:31:54.506Z,23.20
2018-10-06T14:34:22.013Z,23.20
2018-10-06T14:36:49.487Z,23.20
2018-10-06T14:39:16.910Z,23.40
2018-10-06T14:41:44.278Z,23.70
2018-10-06T14:44:11.693Z,23.70
2018-10-06T14:46:39.176Z,23.60
2018-10-06T14:49:11.160Z,23.50
2018-10-06T14:51:40.003Z,23.50
2018-10-06T14:54:07.608Z,23.40
2018-10-06T14:56:35.938Z,23.30
2018-10-06T14:59:04.816Z,23.20
2018-10-06T15:01:36.950Z,23.00
2018-10-06T15:04:12.778Z,22.90
2018-10-06T15:06:43.342Z,22.70
2018-10-06T15:09:11.967Z,22.60
2018-10-06T15:11:43.550Z,22.60
2018-10-06T15:14:10.920Z,22.60
2018-10-06T15:16:38.482Z,22.60
2018-10-06T15:19:07.790Z,22.60
2018-10-06T15:21:35.740Z,22.50
2018-10-06T15:24:03.921Z,22.40
2018-10-06T15:26:35.979Z,22.40
2018-10-06T15:29:07.081Z,22.30
2018-10-06T15:31:35.732Z,22.30
2018-10-06T15:34:03.336Z,22.20
2018-10-06T15:36:30.826Z,22.10
2018-10-06T15:39:04.825Z,22.10
2018-10-06T15:41:32.484Z,22.00
2018-10-06T15:44:03.385Z,21.90
2018-10-06T15:46:31.742Z,21.80
2018-10-06T15:48:59.326Z,21.70
2018-10-06T15:51:26.812Z,21.60
2018-10-06T15:53:54.279Z,21.50
2018-10-06T15:56:21.725Z,21.50
2018-10-06T15:58:49.232Z,21.40
2018-10-06T16:01:16.778Z,21.30
2018-10-06T16:03:44.248Z,21.30
2018-10-06T16:06:11.741Z,21.20
2018-10-06T16:08:39.247Z,21.20
2018-10-06T16:11:06.677Z,21.10
2018-10-06T16:13:34.050Z,21.10
2018-10-06T16:16:01.458Z,21.10
2018-10-06T16:18:28.916Z,21.00
2018-10-06T16:20:56.388Z,20.90
2018-10-06T16:23:23.907Z,20.80
2018-10-06T16:25:51.351Z,20.70
2018-10-06T16:28:18.810Z,20.60
2018-10-06T16:30:46.345Z,20.60
2018-10-06T16:33:13.808Z,20.60
2018-10-06T16:35:41.248Z,20.50
2018-10-06T16:38:08.665Z,20.50
2018-10-06T16:40:36.029Z,20.50
2018-10-06T16:43:03.466Z,20.40
2018-10-06T16:45:30.896Z,20.40
2018-10-06T16:47:58.386Z,20.30
2018-10-06T16:50:25.842Z,20.20
2018-10-06T16:52:54.149Z,20.20
2018-10-06T16:55:21.990Z,20.10
2018-10-06T16:57:49.429Z,20.00
2018-10-06T17:00:16.857Z,20.00
2018-10-06T17:02:44.278Z,19.90
2018-10-06T17:05:12.772Z,19.80
2018-10-06T17:07:40.297Z,19.80
2018-10-06T17:10:07.900Z,19.70
2018-10-06T17:12:35.652Z,19.70
2018-10-06T17:15:02.957Z,19.60
2018-10-06T17:17:30.434Z,19.60
2018-10-06T17:19:57.814Z,19.50
2018-10-06T17:22:25.155Z,19.50
2018-10-06T17:24:52.603Z,19.50
2018-10-06T17:27:20.054Z,19.40
2018-10-06T17:29:47.556Z,19.30
2018-10-06T17:32:15.033Z,19.20
2018-10-06T17:34:42.612Z,19.20
2018-10-06T17:37:09.977Z,19.10
2018-10-06T17:39:38.046Z,19.10
2018-10-06T17:42:06.407Z,19.00
2018-10-06T17:44:34.007Z,19.00
2018-10-06T17:47:01.478Z,19.00
2018-10-06T17:49:29.017Z,19.00
2018-10-06T17:51:56.392Z,19.00
2018-10-06T17:54:23.840Z,18.90
2018-10-06T17:56:51.300Z,18.90
2018-10-06T17:59:18.629Z,18.90
2018-10-06T18:01:46.081Z,18.90
2018-10-06T18:04:13.579Z,18.80
2018-10-06T18:06:41.039Z,18.80
2018-10-06T18:09:08.623Z,18.70
2018-10-06T18:11:36.041Z,18.70
2018-10-06T18:14:03.575Z,18.70
2018-10-06T18:16:31.203Z,18.60
2018-10-06T18:18:59.583Z,18.50
2018-10-06T18:21:27.957Z,18.50
2018-10-06T18:23:59.875Z,18.40
2018-10-06T18:26:27.685Z,18.40
2018-10-06T18:28:56.110Z,18.40
2018-10-06T18:31:25.719Z,18.30
2018-10-06T18:33:53.505Z,18.20
2018-10-06T18:36:21.890Z,18.10
2018-10-06T18:38:49.403Z,18.00
2018-10-06T18:41:17.053Z,18.00
2018-10-06T18:43:44.529Z,18.00
2018-10-06T18:46:11.943Z,18.00
2018-10-06T18:48:39.277Z,17.90
2018-10-06T18:51:06.748Z,17.90
2018-10-06T18:53:34.308Z,17.90
2018-10-06T18:56:01.808Z,17.90
2018-10-06T18:58:29.490Z,17.80
2018-10-06T19:00:57.590Z,17.80
2018-10-06T19:03:25.733Z,17.70
2018-10-06T19:05:54.141Z,17.70
2018-10-06T19:08:22.008Z,17.60
2018-10-06T19:10:49.877Z,17.50
2018-10-06T19:13:17.739Z,17.60
2018-10-06T19:15:45.608Z,17.60
2018-10-06T19:18:14.088Z,17.50
2018-10-06T19:20:42.064Z,17.50
2018-10-06T19:23:19.190Z,17.50
2018-10-06T19:25:52.700Z,17.40
2018-10-06T19:31:04.491Z,17.40
2018-10-06T19:33:38.837Z,17.40
2018-10-06T19:36:06.840Z,17.40
2018-10-06T19:38:42.925Z,17.40
2018-10-06T19:41:16.230Z,17.30
2018-10-06T19:43:46.415Z,17.30
2018-10-06T19:46:15.818Z,17.30
2018-10-06T19:48:47.592Z,17.30
2018-10-06T19:51:24.004Z,17.20
2018-10-06T19:54:01.447Z,17.20
2018-10-06T19:56:33.403Z,17.20
2018-10-06T19:59:13.543Z,17.20
2018-10-06T20:01:46.335Z,17.20
2018-10-06T20:04:15.604Z,17.30
2018-10-06T20:06:56.191Z,17.30
2018-10-06T20:13:38.527Z,17.20
2018-10-06T20:16:10.009Z,17.20
2018-10-06T20:18:41.953Z,17.20
2018-10-06T20:21:14.370Z,17.10
2018-10-06T20:26:25.106Z,17.10
2018-10-06T20:28:52.507Z,17.20
2018-10-06T20:33:58.966Z,17.10
2018-10-06T20:36:30.828Z,17.10
2018-10-06T20:39:02.803Z,17.10
2018-10-06T20:41:38.349Z,17.10
2018-10-06T20:44:07.205Z,17.00
2018-10-06T20:46:40.727Z,17.00
2018-10-06T20:49:09.222Z,17.00
2018-10-06T20:51:38.401Z,17.00
2018-10-06T20:54:08.372Z,17.00
2018-10-06T20:56:37.656Z,16.90
2018-10-06T20:59:07.339Z,16.90
2018-10-06T21:01:38.143Z,16.90
2018-10-06T21:04:07.717Z,16.80
2018-10-06T21:06:37.279Z,16.80
2018-10-06T21:09:08.794Z,16.80
2018-10-06T21:11:37.249Z,16.80
2018-10-06T21:14:06.891Z,16.70
2018-10-06T21:16:37.704Z,16.70
2018-10-06T21:19:08.391Z,16.60
2018-10-06T21:21:37.878Z,16.60
2018-10-06T21:24:06.617Z,16.50
2018-10-06T21:26:37.812Z,16.40
2018-10-06T21:29:05.413Z,16.40
2018-10-06T21:31:32.792Z,16.20
2018-10-06T21:34:06.709Z,16.20
2018-10-06T21:36:35.220Z,16.10
2018-10-06T21:39:05.771Z,16.10
2018-10-06T21:41:38.521Z,16.10
2018-10-06T21:44:06.370Z,16.10
2018-10-06T21:46:36.492Z,15.90
2018-10-06T21:49:05.923Z,15.90
2018-10-06T21:51:34.903Z,15.80
2018-10-06T21:54:02.608Z,15.60
2018-10-06T21:56:33.413Z,15.60
2018-10-06T21:59:04.386Z,15.50
2018-10-06T22:01:34.323Z,15.60
2018-10-06T22:04:04.454Z,15.50
2018-10-06T22:06:34.759Z,15.40
2018-10-06T22:09:13.024Z,15.30
2018-10-06T22:11:42.063Z,15.30
2018-10-06T22:14:09.486Z,15.20
2018-10-06T22:16:37.926Z,15.10
2018-10-06T22:19:05.383Z,15.00
2018-10-06T22:21:32.806Z,15.00
2018-10-06T22:24:00.202Z,15.00
2018-10-06T22:26:27.712Z,15.10
2018-10-06T22:28:55.111Z,15.00
2018-10-06T22:31:22.592Z,15.00
2018-10-06T22:33:49.990Z,14.80
2018-10-06T22:36:17.445Z,14.80
2018-10-06T22:38:45.011Z,14.70
2018-10-06T22:41:12.523Z,14.80
2018-10-06T22:43:40.019Z,14.70
2018-10-06T22:46:07.396Z,14.70
2018-10-06T22:48:34.886Z,14.70
2018-10-06T22:51:02.265Z,14.70
2018-10-06T22:53:29.693Z,14.70
2018-10-06T22:55:57.062Z,14.70
2018-10-06T22:58:24.565Z,14.60
2018-10-06T23:00:52.016Z,14.50
2018-10-06T23:03:19.501Z,14.70
2018-10-06T23:05:46.955Z,14.70
2018-10-06T23:08:14.402Z,14.80
2018-10-06T23:10:42.058Z,14.80
2018-10-06T23:13:09.463Z,14.90
2018-10-06T23:15:36.833Z,15.00
2018-10-06T23:18:04.263Z,15.10
2018-10-06T23:20:31.772Z,15.10
2018-10-06T23:22:59.159Z,15.10
2018-10-06T23:25:26.805Z,15.10
2018-10-06T23:27:54.509Z,15.00
2018-10-06T23:30:22.861Z,15.00
2018-10-06T23:32:51.366Z,15.00
2018-10-06T23:35:19.058Z,14.90
2018-10-06T23:37:46.535Z,14.80
2018-10-06T23:40:13.935Z,14.80
2018-10-06T23:42:41.408Z,14.70
2018-10-06T23:45:08.816Z,14.70
2018-10-06T23:47:36.442Z,14.80
2018-10-06T23:50:04.168Z,14.70
2018-10-06T23:52:31.460Z,14.70
2018-10-06T23:54:58.946Z,14.60
2018-10-06T23:57:26.645Z,14.60
2018-10-06T23:59:54.121Z,14.60
